sensor_id;sensor_type;location;lat;lon;timestamp;temperature;humidity
32322;DHT22;61553;48.994;8.940;2023-06-19T00:00:30;18.80;98.80
32322;DHT22;61553;48.994;8.940;2023-06-19T00:02:56;18.80;99.00
32322;DHT22;61553;48.994;8.940;2023-06-19T00:05:22;18.80;99.50
32322;DHT22;61553;48.994;8.940;2023-06-19T00:07:49;18.80;99.90
32322;DHT22;61553;48.994;8.940;2023-06-19T00:10:14;18.80;99.90
32322;DHT22;61553;48.994;8.940;2023-06-19T00:12:41;18.90;99.90
32322;DHT22;61553;48.994;8.940;2023-06-19T00:15:07;18.70;99.90
32322;DHT22;61553;48.994;8.940;2023-06-19T00:17:35;18.70;99.90
32322;DHT22;61553;48.994;8.940;2023-06-19T00:20:03;18.70;99.90
32322;DHT22;61553;48.994;8.940;2023-06-19T00:22:29;18.60;99.90
32322;DHT22;61553;48.994;8.940;2023-06-19T00:24:55;18.60;99.90
32322;DHT22;61553;48.994;8.940;2023-06-19T00:27:20;18.60;99.90
32322;DHT22;61553;48.994;8.940;2023-06-19T00:29:46;18.50;99.90
32322;DHT22;61553;48.994;8.940;2023-06-19T00:32:12;18.50;99.90
32322;DHT22;61553;48.994;8.940;2023-06-19T00:34:37;18.60;99.90
32322;DHT22;61553;48.994;8.940;2023-06-19T00:37:03;18.50;99.90
32322;DHT22;61553;48.994;8.940;2023-06-19T00:39:29;18.40;99.90
32322;DHT22;61553;48.994;8.940;2023-06-19T00:41:55;18.30;99.90
32322;DHT22;61553;48.994;8.940;2023-06-19T00:44:22;18.30;99.90
32322;DHT22;61553;48.994;8.940;2023-06-19T00:47:00;18.20;99.90
32322;DHT22;61553;48.994;8.940;2023-06-19T00:49:27;18.20;99.90
32322;DHT22;61553;48.994;8.940;2023-06-19T00:51:53;18.30;99.90
32322;DHT22;61553;48.994;8.940;2023-06-19T00:54:19;18.40;99.90
32322;DHT22;61553;48.994;8.940;2023-06-19T00:56:45;18.60;99.90
32322;DHT22;61553;48.994;8.940;2023-06-19T00:59:15;18.90;99.90
32322;DHT22;61553;48.994;8.940;2023-06-19T01:01:42;19.60;99.90
32322;DHT22;61553;48.994;8.940;2023-06-19T01:04:07;20.10;99.20
32322;DHT22;61553;48.994;8.940;2023-06-19T01:06:43;20.50;98.30
32322;DHT22;61553;48.994;8.940;2023-06-19T01:09:15;20.80;97.70
32322;DHT22;61553;48.994;8.940;2023-06-19T01:11:52;21.10;97.20
32322;DHT22;61553;48.994;8.940;2023-06-19T01:14:34;21.30;96.60
32322;DHT22;61553;48.994;8.940;2023-06-19T01:17:01;21.50;96.20
32322;DHT22;61553;48.994;8.940;2023-06-19T01:19:27;21.50;95.90
32322;DHT22;61553;48.994;8.940;2023-06-19T01:21:54;21.60;95.80
32322;DHT22;61553;48.994;8.940;2023-06-19T01:24:19;21.60;95.80
32322;DHT22;61553;48.994;8.940;2023-06-19T01:26:45;21.60;95.90
32322;DHT22;61553;48.994;8.940;2023-06-19T01:29:14;21.50;96.10
32322;DHT22;61553;48.994;8.940;2023-06-19T01:34:20;21.50;95.90
32322;DHT22;61553;48.994;8.940;2023-06-19T01:36:50;21.50;96.00
32322;DHT22;61553;48.994;8.940;2023-06-19T01:39:18;21.50;96.20
32322;DHT22;61553;48.994;8.940;2023-06-19T01:41:44;21.60;96.20
32322;DHT22;61553;48.994;8.940;2023-06-19T01:44:10;21.60;96.40
32322;DHT22;61553;48.994;8.940;2023-06-19T01:46:36;21.60;96.40
32322;DHT22;61553;48.994;8.940;2023-06-19T01:49:06;21.50;96.70
32322;DHT22;61553;48.994;8.940;2023-06-19T01:51:33;21.50;97.10
32322;DHT22;61553;48.994;8.940;2023-06-19T01:53:58;21.40;97.70
32322;DHT22;61553;48.994;8.940;2023-06-19T01:56:24;21.30;98.10
32322;DHT22;61553;48.994;8.940;2023-06-19T01:58:49;21.30;98.40
32322;DHT22;61553;48.994;8.940;2023-06-19T02:01:15;21.30;98.80
32322;DHT22;61553;48.994;8.940;2023-06-19T02:03:41;21.20;99.20
32322;DHT22;61553;48.994;8.940;2023-06-19T02:06:06;21.20;99.50
32322;DHT22;61553;48.994;8.940;2023-06-19T02:08:32;21.10;99.90
32322;DHT22;61553;48.994;8.940;2023-06-19T02:10:58;21.10;99.90
32322;DHT22;61553;48.994;8.940;2023-06-19T02:13:23;21.00;99.90
32322;DHT22;61553;48.994;8.940;2023-06-19T02:15:49;21.00;99.90
32322;DHT22;61553;48.994;8.940;2023-06-19T02:18:14;20.90;99.90
32322;DHT22;61553;48.994;8.940;2023-06-19T02:20:40;20.80;99.90
32322;DHT22;61553;48.994;8.940;2023-06-19T02:23:06;20.70;99.90
32322;DHT22;61553;48.994;8.940;2023-06-19T02:25:31;20.60;99.90
32322;DHT22;61553;48.994;8.940;2023-06-19T02:27:57;20.70;99.90
32322;DHT22;61553;48.994;8.940;2023-06-19T02:30:22;20.60;99.90
32322;DHT22;61553;48.994;8.940;2023-06-19T02:32:48;20.50;99.90
32322;DHT22;61553;48.994;8.940;2023-06-19T02:35:14;20.40;99.90
32322;DHT22;61553;48.994;8.940;2023-06-19T02:37:40;20.40;99.90
32322;DHT22;61553;48.994;8.940;2023-06-19T02:40:07;20.40;99.90
32322;DHT22;61553;48.994;8.940;2023-06-19T02:42:34;20.30;99.90
32322;DHT22;61553;48.994;8.940;2023-06-19T02:45:00;20.10;99.90
32322;DHT22;61553;48.994;8.940;2023-06-19T02:47:32;20.00;99.90
32322;DHT22;61553;48.994;8.940;2023-06-19T02:49:58;20.00;99.90
32322;DHT22;61553;48.994;8.940;2023-06-19T02:52:24;19.80;99.90
32322;DHT22;61553;48.994;8.940;2023-06-19T02:54:50;19.80;99.90
32322;DHT22;61553;48.994;8.940;2023-06-19T02:57:16;19.70;99.90
32322;DHT22;61553;48.994;8.940;2023-06-19T02:59:41;19.70;99.90
32322;DHT22;61553;48.994;8.940;2023-06-19T03:02:07;19.60;99.90
32322;DHT22;61553;48.994;8.940;2023-06-19T03:04:32;19.50;99.90
32322;DHT22;61553;48.994;8.940;2023-06-19T03:06:58;19.50;99.90
32322;DHT22;61553;48.994;8.940;2023-06-19T03:09:24;19.40;99.90
32322;DHT22;61553;48.994;8.940;2023-06-19T03:11:49;19.30;99.90
32322;DHT22;61553;48.994;8.940;2023-06-19T03:14:15;19.20;99.90
32322;DHT22;61553;48.994;8.940;2023-06-19T03:16:40;19.10;99.90
32322;DHT22;61553;48.994;8.940;2023-06-19T03:19:06;19.10;99.90
32322;DHT22;61553;48.994;8.940;2023-06-19T03:21:32;19.00;99.90
32322;DHT22;61553;48.994;8.940;2023-06-19T03:23:57;19.00;99.90
32322;DHT22;61553;48.994;8.940;2023-06-19T03:26:23;18.90;99.90
32322;DHT22;61553;48.994;8.940;2023-06-19T03:28:50;18.90;99.90
32322;DHT22;61553;48.994;8.940;2023-06-19T03:31:15;18.90;99.90
32322;DHT22;61553;48.994;8.940;2023-06-19T03:33:41;18.90;99.90
32322;DHT22;61553;48.994;8.940;2023-06-19T03:36:07;19.00;99.90
32322;DHT22;61553;48.994;8.940;2023-06-19T03:38:36;19.00;99.90
32322;DHT22;61553;48.994;8.940;2023-06-19T03:41:01;19.00;99.90
32322;DHT22;61553;48.994;8.940;2023-06-19T03:43:27;18.90;99.90
32322;DHT22;61553;48.994;8.940;2023-06-19T03:45:53;18.90;99.90
32322;DHT22;61553;48.994;8.940;2023-06-19T03:48:18;19.00;99.90
32322;DHT22;61553;48.994;8.940;2023-06-19T03:50:44;18.90;99.90
32322;DHT22;61553;48.994;8.940;2023-06-19T03:53:10;18.90;99.90
32322;DHT22;61553;48.994;8.940;2023-06-19T03:55:35;18.90;99.90
32322;DHT22;61553;48.994;8.940;2023-06-19T03:58:01;18.90;99.90
32322;DHT22;61553;48.994;8.940;2023-06-19T04:00:27;19.00;99.90
32322;DHT22;61553;48.994;8.940;2023-06-19T04:02:53;19.00;99.90
32322;DHT22;61553;48.994;8.940;2023-06-19T04:05:18;19.00;99.90
32322;DHT22;61553;48.994;8.940;2023-06-19T04:07:45;19.00;99.90
32322;DHT22;61553;48.994;8.940;2023-06-19T04:10:10;19.00;99.90
32322;DHT22;61553;48.994;8.940;2023-06-19T04:12:39;19.00;99.90
32322;DHT22;61553;48.994;8.940;2023-06-19T04:15:09;19.10;99.90
32322;DHT22;61553;48.994;8.940;2023-06-19T04:17:35;19.10;99.90
32322;DHT22;61553;48.994;8.940;2023-06-19T04:20:01;19.20;99.90
32322;DHT22;61553;48.994;8.940;2023-06-19T04:22:26;19.20;99.90
32322;DHT22;61553;48.994;8.940;2023-06-19T04:24:52;19.20;99.90
32322;DHT22;61553;48.994;8.940;2023-06-19T04:27:17;19.30;99.90
32322;DHT22;61553;48.994;8.940;2023-06-19T04:29:44;19.30;99.90
32322;DHT22;61553;48.994;8.940;2023-06-19T04:32:10;19.30;99.90
32322;DHT22;61553;48.994;8.940;2023-06-19T04:34:39;19.40;99.90
32322;DHT22;61553;48.994;8.940;2023-06-19T04:37:05;19.50;99.90
32322;DHT22;61553;48.994;8.940;2023-06-19T04:39:30;19.50;99.90
32322;DHT22;61553;48.994;8.940;2023-06-19T04:41:56;19.50;99.90
32322;DHT22;61553;48.994;8.940;2023-06-19T04:44:21;19.50;99.90
32322;DHT22;61553;48.994;8.940;2023-06-19T04:46:47;19.50;99.90
32322;DHT22;61553;48.994;8.940;2023-06-19T04:49:13;19.60;99.90
32322;DHT22;61553;48.994;8.940;2023-06-19T04:51:40;19.60;99.90
32322;DHT22;61553;48.994;8.940;2023-06-19T04:54:06;19.70;99.90
32322;DHT22;61553;48.994;8.940;2023-06-19T04:56:31;19.70;99.90
32322;DHT22;61553;48.994;8.940;2023-06-19T04:58:57;19.70;99.90
32322;DHT22;61553;48.994;8.940;2023-06-19T05:01:26;19.70;99.90
32322;DHT22;61553;48.994;8.940;2023-06-19T05:03:55;19.80;99.90
32322;DHT22;61553;48.994;8.940;2023-06-19T05:06:23;19.90;99.90
32322;DHT22;61553;48.994;8.940;2023-06-19T05:08:49;20.00;99.90
32322;DHT22;61553;48.994;8.940;2023-06-19T05:11:15;20.10;99.90
32322;DHT22;61553;48.994;8.940;2023-06-19T05:13:41;20.10;99.90
32322;DHT22;61553;48.994;8.940;2023-06-19T05:16:06;20.20;99.90
32322;DHT22;61553;48.994;8.940;2023-06-19T05:18:32;20.40;99.90
32322;DHT22;61553;48.994;8.940;2023-06-19T05:20:57;20.60;99.90
32322;DHT22;61553;48.994;8.940;2023-06-19T05:23:23;20.90;99.90
32322;DHT22;61553;48.994;8.940;2023-06-19T05:25:49;21.20;99.90
32322;DHT22;61553;48.994;8.940;2023-06-19T05:28:14;21.60;99.90
32322;DHT22;61553;48.994;8.940;2023-06-19T05:30:40;22.00;99.90
32322;DHT22;61553;48.994;8.940;2023-06-19T05:33:06;22.20;99.90
32322;DHT22;61553;48.994;8.940;2023-06-19T05:35:31;22.20;99.90
32322;DHT22;61553;48.994;8.940;2023-06-19T05:37:57;22.40;99.90
32322;DHT22;61553;48.994;8.940;2023-06-19T05:40:23;22.80;99.90
32322;DHT22;61553;48.994;8.940;2023-06-19T05:42:50;23.10;99.90
32322;DHT22;61553;48.994;8.940;2023-06-19T05:45:16;23.00;99.90
32322;DHT22;61553;48.994;8.940;2023-06-19T05:47:41;23.00;99.90
32322;DHT22;61553;48.994;8.940;2023-06-19T05:50:07;23.00;99.90
32322;DHT22;61553;48.994;8.940;2023-06-19T05:52:33;23.10;99.90
32322;DHT22;61553;48.994;8.940;2023-06-19T05:55:01;23.10;99.90
32322;DHT22;61553;48.994;8.940;2023-06-19T05:57:27;23.30;99.90
32322;DHT22;61553;48.994;8.940;2023-06-19T05:59:52;23.40;99.90
32322;DHT22;61553;48.994;8.940;2023-06-19T06:02:19;23.50;99.90
32322;DHT22;61553;48.994;8.940;2023-06-19T06:04:45;23.80;99.90
32322;DHT22;61553;48.994;8.940;2023-06-19T06:07:11;24.00;99.90
32322;DHT22;61553;48.994;8.940;2023-06-19T06:09:37;24.20;99.90
32322;DHT22;61553;48.994;8.940;2023-06-19T06:12:03;24.70;99.90
32322;DHT22;61553;48.994;8.940;2023-06-19T06:14:29;25.30;99.90
32322;DHT22;61553;48.994;8.940;2023-06-19T06:16:55;27.40;98.20
32322;DHT22;61553;48.994;8.940;2023-06-19T06:19:20;28.70;91.80
32322;DHT22;61553;48.994;8.940;2023-06-19T06:21:48;30.20;84.40
32322;DHT22;61553;48.994;8.940;2023-06-19T06:24:14;32.30;73.80
32322;DHT22;61553;48.994;8.940;2023-06-19T06:26:39;33.40;65.90
32322;DHT22;61553;48.994;8.940;2023-06-19T06:29:05;33.20;62.80
32322;DHT22;61553;48.994;8.940;2023-06-19T06:31:31;33.70;61.90
32322;DHT22;61553;48.994;8.940;2023-06-19T06:33:56;34.70;58.90
32322;DHT22;61553;48.994;8.940;2023-06-19T06:36:22;36.50;56.30
32322;DHT22;61553;48.994;8.940;2023-06-19T06:38:47;37.00;52.80
32322;DHT22;61553;48.994;8.940;2023-06-19T06:41:13;36.40;51.20
32322;DHT22;61553;48.994;8.940;2023-06-19T06:43:40;35.50;51.80
32322;DHT22;61553;48.994;8.940;2023-06-19T06:46:09;34.60;52.30
32322;DHT22;61553;48.994;8.940;2023-06-19T06:48:38;34.80;52.10
32322;DHT22;61553;48.994;8.940;2023-06-19T06:51:05;33.90;53.10
32322;DHT22;61553;48.994;8.940;2023-06-19T06:53:30;32.50;55.80
32322;DHT22;61553;48.994;8.940;2023-06-19T06:55:59;31.30;57.60
32322;DHT22;61553;48.994;8.940;2023-06-19T06:58:26;30.70;59.30
32322;DHT22;61553;48.994;8.940;2023-06-19T07:00:52;31.10;59.40
32322;DHT22;61553;48.994;8.940;2023-06-19T07:03:17;32.40;56.90
32322;DHT22;61553;48.994;8.940;2023-06-19T07:05:43;34.50;54.30
32322;DHT22;61553;48.994;8.940;2023-06-19T07:08:09;36.10;50.80
32322;DHT22;61553;48.994;8.940;2023-06-19T07:10:35;37.10;49.50
32322;DHT22;61553;48.994;8.940;2023-06-19T07:13:00;37.80;48.00
32322;DHT22;61553;48.994;8.940;2023-06-19T07:15:26;38.50;47.20
32322;DHT22;61553;48.994;8.940;2023-06-19T07:17:52;40.10;44.90
32322;DHT22;61553;48.994;8.940;2023-06-19T07:20:18;40.90;43.10
32322;DHT22;61553;48.994;8.940;2023-06-19T07:22:44;39.20;44.50
32322;DHT22;61553;48.994;8.940;2023-06-19T07:25:11;39.50;43.90
32322;DHT22;61553;48.994;8.940;2023-06-19T07:27:37;40.60;43.70
32322;DHT22;61553;48.994;8.940;2023-06-19T07:30:04;41.20;42.30
32322;DHT22;61553;48.994;8.940;2023-06-19T07:32:29;39.10;44.20
32322;DHT22;61553;48.994;8.940;2023-06-19T07:34:55;37.40;45.20
32322;DHT22;61553;48.994;8.940;2023-06-19T07:37:21;36.40;46.80
32322;DHT22;61553;48.994;8.940;2023-06-19T07:39:48;35.70;47.60
32322;DHT22;61553;48.994;8.940;2023-06-19T07:42:14;34.40;48.20
32322;DHT22;61553;48.994;8.940;2023-06-19T07:44:40;34.10;50.10
32322;DHT22;61553;48.994;8.940;2023-06-19T07:47:07;34.50;49.00
32322;DHT22;61553;48.994;8.940;2023-06-19T07:49:32;34.30;49.30
32322;DHT22;61553;48.994;8.940;2023-06-19T07:51:58;34.70;48.30
32322;DHT22;61553;48.994;8.940;2023-06-19T07:54:24;34.50;48.20
32322;DHT22;61553;48.994;8.940;2023-06-19T07:56:49;34.40;48.80
32322;DHT22;61553;48.994;8.940;2023-06-19T07:59:15;34.20;49.90
32322;DHT22;61553;48.994;8.940;2023-06-19T08:01:42;33.70;49.90
32322;DHT22;61553;48.994;8.940;2023-06-19T08:04:08;33.40;50.50
32322;DHT22;61553;48.994;8.940;2023-06-19T08:06:33;34.20;49.70
32322;DHT22;61553;48.994;8.940;2023-06-19T08:08:59;35.00;49.10
32322;DHT22;61553;48.994;8.940;2023-06-19T08:11:24;36.80;46.50
32322;DHT22;61553;48.994;8.940;2023-06-19T08:13:50;37.00;46.30
32322;DHT22;61553;48.994;8.940;2023-06-19T08:16:15;37.90;45.60
32322;DHT22;61553;48.994;8.940;2023-06-19T08:18:41;38.50;45.00
32322;DHT22;61553;48.994;8.940;2023-06-19T08:21:07;39.70;43.90
32322;DHT22;61553;48.994;8.940;2023-06-19T08:23:33;38.80;43.70
32322;DHT22;61553;48.994;8.940;2023-06-19T08:25:59;38.80;44.40
32322;DHT22;61553;48.994;8.940;2023-06-19T08:28:24;39.90;42.90
32322;DHT22;61553;48.994;8.940;2023-06-19T08:30:50;40.50;42.70
32322;DHT22;61553;48.994;8.940;2023-06-19T08:33:15;41.30;41.90
32322;DHT22;61553;48.994;8.940;2023-06-19T08:35:41;41.70;42.30
32322;DHT22;61553;48.994;8.940;2023-06-19T08:38:07;40.70;42.80
32322;DHT22;61553;48.994;8.940;2023-06-19T08:40:33;41.80;41.60
32322;DHT22;61553;48.994;8.940;2023-06-19T08:42:59;43.30;40.60
32322;DHT22;61553;48.994;8.940;2023-06-19T08:45:26;42.80;40.00
32322;DHT22;61553;48.994;8.940;2023-06-19T08:47:59;42.60;40.00
32322;DHT22;61553;48.994;8.940;2023-06-19T08:50:25;41.80;41.30
32322;DHT22;61553;48.994;8.940;2023-06-19T08:52:51;40.30;42.50
32322;DHT22;61553;48.994;8.940;2023-06-19T08:55:17;39.30;43.20
32322;DHT22;61553;48.994;8.940;2023-06-19T08:57:42;38.30;43.90
32322;DHT22;61553;48.994;8.940;2023-06-19T09:00:08;37.50;45.40
32322;DHT22;61553;48.994;8.940;2023-06-19T09:02:44;36.90;45.60
32322;DHT22;61553;48.994;8.940;2023-06-19T09:05:15;36.20;46.40
32322;DHT22;61553;48.994;8.940;2023-06-19T09:07:41;37.20;45.10
32322;DHT22;61553;48.994;8.940;2023-06-19T09:10:17;37.60;44.10
32322;DHT22;61553;48.994;8.940;2023-06-19T09:12:44;38.40;44.70
32322;DHT22;61553;48.994;8.940;2023-06-19T09:15:14;39.50;43.90
32322;DHT22;61553;48.994;8.940;2023-06-19T09:17:40;39.70;43.40
32322;DHT22;61553;48.994;8.940;2023-06-19T09:20:06;38.20;44.10
32322;DHT22;61553;48.994;8.940;2023-06-19T09:22:32;37.30;45.70
32322;DHT22;61553;48.994;8.940;2023-06-19T09:25:01;36.70;45.90
32322;DHT22;61553;48.994;8.940;2023-06-19T09:27:33;36.70;46.10
32322;DHT22;61553;48.994;8.940;2023-06-19T09:29:58;36.10;46.20
32322;DHT22;61553;48.994;8.940;2023-06-19T09:32:26;35.70;47.00
32322;DHT22;61553;48.994;8.940;2023-06-19T09:34:56;34.70;48.40
32322;DHT22;61553;48.994;8.940;2023-06-19T09:37:29;34.20;49.70
32322;DHT22;61553;48.994;8.940;2023-06-19T09:39:57;33.60;51.00
32322;DHT22;61553;48.994;8.940;2023-06-19T09:42:33;34.50;50.40
32322;DHT22;61553;48.994;8.940;2023-06-19T09:45:01;35.90;48.20
32322;DHT22;61553;48.994;8.940;2023-06-19T09:47:37;37.60;46.00
32322;DHT22;61553;48.994;8.940;2023-06-19T09:50:05;37.90;45.90
32322;DHT22;61553;48.994;8.940;2023-06-19T09:52:32;38.90;45.80
32322;DHT22;61553;48.994;8.940;2023-06-19T09:55:02;39.00;44.80
32322;DHT22;61553;48.994;8.940;2023-06-19T09:57:29;39.90;44.50
32322;DHT22;61553;48.994;8.940;2023-06-19T09:59:56;39.30;43.90
32322;DHT22;61553;48.994;8.940;2023-06-19T10:02:24;39.30;44.50
32322;DHT22;61553;48.994;8.940;2023-06-19T10:04:53;39.10;44.90
32322;DHT22;61553;48.994;8.940;2023-06-19T10:07:25;39.40;44.80
32322;DHT22;61553;48.994;8.940;2023-06-19T10:09:55;39.90;43.90
32322;DHT22;61553;48.994;8.940;2023-06-19T10:12:21;39.80;43.80
32322;DHT22;61553;48.994;8.940;2023-06-19T10:14:47;38.90;44.60
32322;DHT22;61553;48.994;8.940;2023-06-19T10:17:17;38.30;45.00
32322;DHT22;61553;48.994;8.940;2023-06-19T10:19:49;37.90;45.40
32322;DHT22;61553;48.994;8.940;2023-06-19T10:22:20;37.70;46.80
32322;DHT22;61553;48.994;8.940;2023-06-19T10:24:50;37.60;47.10
32322;DHT22;61553;48.994;8.940;2023-06-19T10:27:21;36.80;47.40
32322;DHT22;61553;48.994;8.940;2023-06-19T10:29:54;36.30;48.90
32322;DHT22;61553;48.994;8.940;2023-06-19T10:32:20;35.40;49.90
32322;DHT22;61553;48.994;8.940;2023-06-19T10:34:47;34.80;49.90
32322;DHT22;61553;48.994;8.940;2023-06-19T10:37:14;34.00;50.50
32322;DHT22;61553;48.994;8.940;2023-06-19T10:39:40;34.00;50.90
32322;DHT22;61553;48.994;8.940;2023-06-19T10:42:07;34.00;52.30
32322;DHT22;61553;48.994;8.940;2023-06-19T10:44:33;34.00;51.60
32322;DHT22;61553;48.994;8.940;2023-06-19T10:46:59;33.60;51.10
32322;DHT22;61553;48.994;8.940;2023-06-19T10:49:25;33.30;53.20
32322;DHT22;61553;48.994;8.940;2023-06-19T10:51:51;33.00;53.00
32322;DHT22;61553;48.994;8.940;2023-06-19T10:54:18;32.60;54.60
32322;DHT22;61553;48.994;8.940;2023-06-19T10:56:44;32.20;54.10
32322;DHT22;61553;48.994;8.940;2023-06-19T10:59:13;32.20;54.20
32322;DHT22;61553;48.994;8.940;2023-06-19T11:01:40;32.20;54.50
32322;DHT22;61553;48.994;8.940;2023-06-19T11:04:07;32.00;55.30
32322;DHT22;61553;48.994;8.940;2023-06-19T11:06:34;31.60;55.30
32322;DHT22;61553;48.994;8.940;2023-06-19T11:09:00;31.40;56.10
32322;DHT22;61553;48.994;8.940;2023-06-19T11:11:44;31.40;56.40
32322;DHT22;61553;48.994;8.940;2023-06-19T11:14:11;31.60;56.10
32322;DHT22;61553;48.994;8.940;2023-06-19T11:16:46;32.00;55.70
32322;DHT22;61553;48.994;8.940;2023-06-19T11:19:17;32.00;56.60
32322;DHT22;61553;48.994;8.940;2023-06-19T11:21:48;31.90;55.70
32322;DHT22;61553;48.994;8.940;2023-06-19T11:24:14;32.00;56.30
32322;DHT22;61553;48.994;8.940;2023-06-19T11:26:41;32.20;54.50
32322;DHT22;61553;48.994;8.940;2023-06-19T11:29:16;32.10;55.70
32322;DHT22;61553;48.994;8.940;2023-06-19T11:31:41;32.30;55.70
32322;DHT22;61553;48.994;8.940;2023-06-19T11:34:07;32.30;55.00
32322;DHT22;61553;48.994;8.940;2023-06-19T11:36:36;32.10;54.10
32322;DHT22;61553;48.994;8.940;2023-06-19T11:39:02;32.10;55.40
32322;DHT22;61553;48.994;8.940;2023-06-19T11:41:30;32.10;53.90
32322;DHT22;61553;48.994;8.940;2023-06-19T11:44:03;32.10;54.60
32322;DHT22;61553;48.994;8.940;2023-06-19T11:46:33;32.00;54.90
32322;DHT22;61553;48.994;8.940;2023-06-19T11:49:12;31.90;54.80
32322;DHT22;61553;48.994;8.940;2023-06-19T11:51:39;31.80;56.40
32322;DHT22;61553;48.994;8.940;2023-06-19T11:54:07;31.70;56.40
32322;DHT22;61553;48.994;8.940;2023-06-19T11:56:34;31.90;53.70
32322;DHT22;61553;48.994;8.940;2023-06-19T11:59:00;32.20;54.50
32322;DHT22;61553;48.994;8.940;2023-06-19T12:01:26;32.40;53.50
32322;DHT22;61553;48.994;8.940;2023-06-19T12:03:51;32.50;55.40
32322;DHT22;61553;48.994;8.940;2023-06-19T12:06:17;32.60;55.10
32322;DHT22;61553;48.994;8.940;2023-06-19T12:08:44;32.60;54.30
32322;DHT22;61553;48.994;8.940;2023-06-19T12:11:09;32.40;53.90
32322;DHT22;61553;48.994;8.940;2023-06-19T12:13:35;32.20;54.20
32322;DHT22;61553;48.994;8.940;2023-06-19T12:16:01;32.40;54.10
32322;DHT22;61553;48.994;8.940;2023-06-19T12:18:27;32.40;54.80
32322;DHT22;61553;48.994;8.940;2023-06-19T12:20:52;32.40;53.40
32322;DHT22;61553;48.994;8.940;2023-06-19T12:23:18;32.50;53.60
32322;DHT22;61553;48.994;8.940;2023-06-19T12:25:44;32.50;52.30
32322;DHT22;61553;48.994;8.940;2023-06-19T12:28:10;32.40;52.70
32322;DHT22;61553;48.994;8.940;2023-06-19T12:30:37;32.50;52.80
32322;DHT22;61553;48.994;8.940;2023-06-19T12:33:03;32.20;54.30
32322;DHT22;61553;48.994;8.940;2023-06-19T12:35:29;32.10;55.50
32322;DHT22;61553;48.994;8.940;2023-06-19T12:37:54;32.40;52.90
32322;DHT22;61553;48.994;8.940;2023-06-19T12:40:20;32.60;53.10
32322;DHT22;61553;48.994;8.940;2023-06-19T12:42:46;32.80;51.60
32322;DHT22;61553;48.994;8.940;2023-06-19T12:45:12;32.90;51.90
32322;DHT22;61553;48.994;8.940;2023-06-19T12:47:38;33.20;52.10
32322;DHT22;61553;48.994;8.940;2023-06-19T12:50:04;33.30;53.30
32322;DHT22;61553;48.994;8.940;2023-06-19T12:52:30;32.90;52.70
32322;DHT22;61553;48.994;8.940;2023-06-19T12:54:56;33.00;53.00
32322;DHT22;61553;48.994;8.940;2023-06-19T12:57:22;32.90;52.60
32322;DHT22;61553;48.994;8.940;2023-06-19T12:59:48;32.80;52.50
32322;DHT22;61553;48.994;8.940;2023-06-19T13:02:14;32.80;52.50
32322;DHT22;61553;48.994;8.940;2023-06-19T13:04:39;32.70;53.70
32322;DHT22;61553;48.994;8.940;2023-06-19T13:07:05;32.70;54.30
32322;DHT22;61553;48.994;8.940;2023-06-19T13:09:30;32.40;53.70
32322;DHT22;61553;48.994;8.940;2023-06-19T13:11:56;32.30;53.90
32322;DHT22;61553;48.994;8.940;2023-06-19T13:14:21;32.30;53.10
32322;DHT22;61553;48.994;8.940;2023-06-19T13:16:47;32.60;52.50
32322;DHT22;61553;48.994;8.940;2023-06-19T13:19:15;32.60;52.60
32322;DHT22;61553;48.994;8.940;2023-06-19T13:21:42;32.80;53.50
32322;DHT22;61553;48.994;8.940;2023-06-19T13:24:07;32.60;52.90
32322;DHT22;61553;48.994;8.940;2023-06-19T13:26:33;32.60;53.00
32322;DHT22;61553;48.994;8.940;2023-06-19T13:28:58;32.60;53.40
32322;DHT22;61553;48.994;8.940;2023-06-19T13:31:26;32.80;52.20
32322;DHT22;61553;48.994;8.940;2023-06-19T13:33:51;33.10;51.50
32322;DHT22;61553;48.994;8.940;2023-06-19T13:36:17;33.10;52.50
32322;DHT22;61553;48.994;8.940;2023-06-19T13:38:45;33.30;53.00
32322;DHT22;61553;48.994;8.940;2023-06-19T13:41:11;33.50;52.50
32322;DHT22;61553;48.994;8.940;2023-06-19T13:43:37;33.50;52.40
32322;DHT22;61553;48.994;8.940;2023-06-19T13:46:06;33.60;52.30
32322;DHT22;61553;48.994;8.940;2023-06-19T13:48:32;33.70;51.60
32322;DHT22;61553;48.994;8.940;2023-06-19T13:50:58;33.60;51.70
32322;DHT22;61553;48.994;8.940;2023-06-19T13:53:25;33.50;51.30
32322;DHT22;61553;48.994;8.940;2023-06-19T13:55:50;32.90;51.80
32322;DHT22;61553;48.994;8.940;2023-06-19T13:58:16;32.80;53.10
32322;DHT22;61553;48.994;8.940;2023-06-19T14:00:42;32.70;54.50
32322;DHT22;61553;48.994;8.940;2023-06-19T14:03:07;32.60;53.30
32322;DHT22;61553;48.994;8.940;2023-06-19T14:05:33;32.80;52.80
32322;DHT22;61553;48.994;8.940;2023-06-19T14:07:59;32.80;52.60
32322;DHT22;61553;48.994;8.940;2023-06-19T14:10:25;33.00;52.40
32322;DHT22;61553;48.994;8.940;2023-06-19T14:12:51;33.10;52.10
32322;DHT22;61553;48.994;8.940;2023-06-19T14:15:16;33.10;52.70
32322;DHT22;61553;48.994;8.940;2023-06-19T14:17:42;33.00;52.90
32322;DHT22;61553;48.994;8.940;2023-06-19T14:20:10;33.10;53.00
32322;DHT22;61553;48.994;8.940;2023-06-19T14:22:36;32.90;53.10
32322;DHT22;61553;48.994;8.940;2023-06-19T14:25:02;32.70;53.70
32322;DHT22;61553;48.994;8.940;2023-06-19T14:27:28;32.70;53.60
32322;DHT22;61553;48.994;8.940;2023-06-19T14:29:55;32.50;54.00
32322;DHT22;61553;48.994;8.940;2023-06-19T14:32:21;32.50;54.20
32322;DHT22;61553;48.994;8.940;2023-06-19T14:34:48;32.30;54.30
32322;DHT22;61553;48.994;8.940;2023-06-19T14:37:13;32.50;54.40
32322;DHT22;61553;48.994;8.940;2023-06-19T14:39:39;32.30;53.70
32322;DHT22;61553;48.994;8.940;2023-06-19T14:42:05;32.30;54.00
32322;DHT22;61553;48.994;8.940;2023-06-19T14:44:31;32.40;54.50
32322;DHT22;61553;48.994;8.940;2023-06-19T14:46:58;32.50;54.30
32322;DHT22;61553;48.994;8.940;2023-06-19T14:49:23;32.50;54.50
32322;DHT22;61553;48.994;8.940;2023-06-19T14:51:49;32.40;55.10
32322;DHT22;61553;48.994;8.940;2023-06-19T14:54:15;32.20;55.30
32322;DHT22;61553;48.994;8.940;2023-06-19T14:56:43;32.10;56.00
32322;DHT22;61553;48.994;8.940;2023-06-19T14:59:10;31.90;56.20
32322;DHT22;61553;48.994;8.940;2023-06-19T15:01:35;31.80;56.70
32322;DHT22;61553;48.994;8.940;2023-06-19T15:04:01;31.80;56.30
32322;DHT22;61553;48.994;8.940;2023-06-19T15:06:27;31.60;56.60
32322;DHT22;61553;48.994;8.940;2023-06-19T15:08:52;31.60;56.40
32322;DHT22;61553;48.994;8.940;2023-06-19T15:11:18;31.50;57.00
32322;DHT22;61553;48.994;8.940;2023-06-19T15:13:43;31.60;57.50
32322;DHT22;61553;48.994;8.940;2023-06-19T15:16:09;31.70;57.40
32322;DHT22;61553;48.994;8.940;2023-06-19T15:18:37;31.60;56.90
32322;DHT22;61553;48.994;8.940;2023-06-19T15:21:03;31.60;57.50
32322;DHT22;61553;48.994;8.940;2023-06-19T15:23:31;31.60;57.00
32322;DHT22;61553;48.994;8.940;2023-06-19T15:25:57;31.50;57.00
32322;DHT22;61553;48.994;8.940;2023-06-19T15:28:22;31.60;56.90